Topeka/Forbes Field, Kansas
Current Conditions -  °F | °C
As of 9:53 PM on Wednesday 28 Jan 2015 (Local Time) from KFOE Reporting Station
Clear Clear  
Wind Chill: 59°   Ceiling: Unl
Heat Index: 59°   Visibility: 10mi
Dew Point: 34°   Wind: 18mph
Humidity: 39%   Direction: 300°WNW
Pressure: 29.82"   Gusts: NA
Location:  38.95°N, 95.66°W
Report Text: KFOE 290353Z AUTO 30016KT 10SM CLR 15/01 A2982 RMK AO2 SLP097 T01500011
Loading
Personal Weather Stations






























Interactive Weather Map New forecast layout! Learn more

10-Day Weather Forecast

Advertisements
Track Severe Weather on mobile